Time;durP1;ratioP1;P1;durP2;ratioP2;P2;SDS_P1;SDS_P2;PMS_P1;PMS_P2;Temp;Humidity;BMP_temperature;BMP_pressure;BME280_temperature;BME280_humidity;BME280_pressure;Samples;Min_cycle;Max_cycle;Signal;HPM_P1;HPM_P2
2019/09/21 00:01:52;;;;;;;2.68;1.77;;;;;;;20.36;49.50;101231.36;;;;-61
2019/09/21 00:04:52;;;;;;;2.34;1.85;;;;;;;20.36;49.50;101233.61;;;;-61
2019/09/21 00:07:52;;;;;;;1.85;1.73;;;;;;;20.35;49.48;101231.04;;;;-60
2019/09/21 00:10:52;;;;;;;2.00;1.71;;;;;;;20.35;49.48;101229.30;;;;-61
2019/09/21 00:13:55;;;;;;;1.99;1.59;;;;;;;20.35;49.50;101226.52;;;;-63
2019/09/21 00:22:57;;;;;;;1.84;1.63;;;;;;;20.34;49.56;101219.24;;;;-61
2019/09/21 00:25:52;;;;;;;1.87;1.65;;;;;;;20.33;49.51;101213.26;;;;-60
2019/09/21 00:28:52;;;;;;;1.70;1.60;;;;;;;20.33;49.53;101206.61;;;;-61
2019/09/21 00:37:17;;;;;;;2.05;1.64;;;;;;;20.32;49.54;101199.34;;;;-61
2019/09/21 00:40:17;;;;;;;1.81;1.57;;;;;;;20.32;49.53;101196.66;;;;-60
2019/09/21 00:43:17;;;;;;;2.12;1.69;;;;;;;20.32;49.52;101195.37;;;;-62
2019/09/21 00:46:17;;;;;;;1.62;1.52;;;;;;;20.31;49.53;101197.20;;;;-61
2019/09/21 00:49:16;;;;;;;1.89;1.68;;;;;;;20.31;49.54;101200.28;;;;-60
2019/09/21 00:52:17;;;;;;;1.67;1.57;;;;;;;20.31;49.55;101199.89;;;;-60
2019/09/21 00:55:17;;;;;;;1.94;1.68;;;;;;;20.30;49.57;101200.91;;;;-61
2019/09/21 00:58:17;;;;;;;1.83;1.62;;;;;;;20.31;49.53;101197.60;;;;-59
2019/09/21 01:01:17;;;;;;;1.93;1.72;;;;;;;20.30;49.55;101200.67;;;;-60
2019/09/21 01:04:17;;;;;;;1.74;1.64;;;;;;;20.30;49.54;101198.56;;;;-60
2019/09/21 01:07:17;;;;;;;1.75;1.48;;;;;;;20.29;49.58;101198.38;;;;-61
2019/09/21 01:10:16;;;;;;;1.85;1.50;;;;;;;20.30;49.55;101194.59;;;;-61
2019/09/21 01:13:17;;;;;;;1.59;1.49;;;;;;;20.29;49.58;101192.91;;;;-59
2019/09/21 01:16:17;;;;;;;1.83;1.55;;;;;;;20.28;49.55;101186.81;;;;-60
2019/09/21 01:19:17;;;;;;;2.14;1.61;;;;;;;20.27;49.56;101181.16;;;;-61
2019/09/21 01:22:17;;;;;;;1.94;1.58;;;;;;;20.27;49.56;101175.14;;;;-60
2019/09/21 01:25:17;;;;;;;2.17;1.67;;;;;;;20.27;49.58;101179.44;;;;-60
2019/09/21 01:28:16;;;;;;;1.63;1.53;;;;;;;20.27;49.58;101182.67;;;;-61
2019/09/21 01:31:17;;;;;;;1.91;1.57;;;;;;;20.27;49.55;101181.89;;;;-60
2019/09/21 01:34:17;;;;;;;1.77;1.67;;;;;;;20.27;49.58;101184.64;;;;-62
2019/09/21 01:37:17;;;;;;;1.67;1.57;;;;;;;20.26;49.60;101184.02;;;;-61
2019/09/21 01:40:17;;;;;;;1.73;1.58;;;;;;;20.27;49.56;101185.75;;;;-59
2019/09/21 01:43:17;;;;;;;1.86;1.60;;;;;;;20.26;49.56;101184.92;;;;-59
2019/09/21 01:49:18;;;;;;;1.92;1.70;;;;;;;20.26;49.57;101178.45;;;;-61
2019/09/21 01:52:17;;;;;;;1.65;1.55;;;;;;;20.25;49.57;101177.03;;;;-61
2019/09/21 01:55:17;;;;;;;1.85;1.63;;;;;;;20.24;49.55;101171.28;;;;-61
2019/09/21 01:58:17;;;;;;;2.45;1.71;;;;;;;20.24;49.59;101167.81;;;;-60
2019/09/21 02:01:17;;;;;;;1.57;1.47;;;;;;;20.25;49.58;101170.78;;;;-62
2019/09/21 02:04:17;;;;;;;1.63;1.53;;;;;;;20.23;49.62;101174.14;;;;-61
2019/09/21 02:07:16;;;;;;;1.78;1.59;;;;;;;20.24;49.61;101177.67;;;;-60
2019/09/21 02:10:16;;;;;;;1.70;1.59;;;;;;;20.24;49.56;101181.70;;;;-60
2019/09/21 02:13:17;;;;;;;1.73;1.60;;;;;;;20.23;49.58;101181.02;;;;-60
2019/09/21 02:16:17;;;;;;;1.65;1.55;;;;;;;20.23;49.57;101175.97;;;;-60
2019/09/21 02:19:17;;;;;;;1.74;1.50;;;;;;;20.23;49.57;101176.98;;;;-61
2019/09/21 02:22:17;;;;;;;1.75;1.51;;;;;;;20.23;49.59;101169.44;;;;-61
2019/09/21 02:25:17;;;;;;;1.89;1.70;;;;;;;20.22;49.60;101165.87;;;;-60
2019/09/21 02:28:16;;;;;;;1.67;1.57;;;;;;;20.22;49.58;101166.64;;;;-60
2019/09/21 02:31:16;;;;;;;2.58;1.51;;;;;;;20.22;49.57;101162.52;;;;-60
2019/09/21 02:34:17;;;;;;;1.67;1.54;;;;;;;20.21;49.60;101156.53;;;;-61
2019/09/21 02:37:17;;;;;;;1.68;1.58;;;;;;;20.20;49.58;101155.30;;;;-61
2019/09/21 02:40:17;;;;;;;1.83;1.53;;;;;;;20.21;49.60;101154.14;;;;-60
2019/09/21 02:43:17;;;;;;;1.58;1.48;;;;;;;20.20;49.58;101147.31;;;;-60
2019/09/21 02:46:16;;;;;;;1.83;1.47;;;;;;;20.21;49.58;101144.67;;;;-61
2019/09/21 02:49:17;;;;;;;1.72;1.53;;;;;;;20.20;49.58;101140.55;;;;-60
2019/09/21 02:52:16;;;;;;;1.57;1.47;;;;;;;20.20;49.55;101138.15;;;;-61
2019/09/21 02:55:16;;;;;;;1.70;1.50;;;;;;;20.20;49.58;101133.89;;;;-61
2019/09/21 02:58:17;;;;;;;2.55;1.68;;;;;;;20.18;49.55;101133.22;;;;-61
2019/09/21 03:01:17;;;;;;;1.69;1.59;;;;;;;20.19;49.56;101134.02;;;;-61
2019/09/21 03:04:16;;;;;;;1.90;1.50;;;;;;;20.20;49.55;101137.14;;;;-60
2019/09/21 03:07:16;;;;;;;1.68;1.53;;;;;;;20.19;49.59;101135.52;;;;-61
2019/09/21 03:10:17;;;;;;;1.60;1.50;;;;;;;20.18;49.59;101128.66;;;;-61
2019/09/21 03:13:16;;;;;;;1.62;1.52;;;;;;;20.18;49.56;101126.52;;;;-60
2019/09/21 03:16:17;;;;;;;1.80;1.52;;;;;;;20.18;49.60;101125.07;;;;-62
2019/09/21 03:19:17;;;;;;;1.52;1.40;;;;;;;20.18;49.58;101122.05;;;;-61
2019/09/21 03:22:17;;;;;;;1.57;1.47;;;;;;;20.18;49.59;101121.20;;;;-61
2019/09/21 03:25:16;;;;;;;1.71;1.41;;;;;;;20.17;49.56;101123.78;;;;-61
2019/09/21 03:28:16;;;;;;;1.71;1.40;;;;;;;20.17;49.58;101121.22;;;;-59
2019/09/21 03:31:16;;;;;;;1.78;1.50;;;;;;;20.17;49.57;101124.52;;;;-60
2019/09/21 03:34:16;;;;;;;1.62;1.50;;;;;;;20.17;49.59;101120.48;;;;-60
2019/09/21 03:37:17;;;;;;;1.54;1.44;;;;;;;20.17;49.55;101121.33;;;;-60
2019/09/21 03:40:17;;;;;;;1.55;1.45;;;;;;;20.17;49.56;101117.64;;;;-60
2019/09/21 03:43:16;;;;;;;1.59;1.49;;;;;;;20.17;49.56;101118.41;;;;-61
2019/09/21 03:46:16;;;;;;;2.15;1.45;;;;;;;20.17;49.56;101114.11;;;;-60
2019/09/21 03:49:16;;;;;;;1.50;1.40;;;;;;;20.16;49.60;101119.87;;;;-60
2019/09/21 03:52:17;;;;;;;1.59;1.49;;;;;;;20.16;49.58;101118.92;;;;-61
2019/09/21 03:55:17;;;;;;;2.23;1.51;;;;;;;20.16;49.56;101117.14;;;;-61
2019/09/21 03:58:17;;;;;;;1.62;1.49;;;;;;;20.15;49.57;101114.28;;;;-60
2019/09/21 04:01:17;;;;;;;1.53;1.43;;;;;;;20.15;49.58;101119.31;;;;-60
2019/09/21 04:04:16;;;;;;;1.52;1.33;;;;;;;20.15;49.56;101120.83;;;;-62
2019/09/21 04:07:16;;;;;;;1.74;1.59;;;;;;;20.15;49.55;101118.64;;;;-62
2019/09/21 04:10:17;;;;;;;2.05;1.50;;;;;;;20.15;49.53;101120.81;;;;-60
2019/09/21 04:13:17;;;;;;;1.71;1.40;;;;;;;20.15;49.56;101119.47;;;;-61
2019/09/21 04:16:17;;;;;;;1.59;1.49;;;;;;;20.15;49.55;101123.84;;;;-60
2019/09/21 04:19:17;;;;;;;1.61;1.51;;;;;;;20.14;49.54;101119.92;;;;-60
2019/09/21 04:22:16;;;;;;;1.69;1.41;;;;;;;20.15;49.55;101123.39;;;;-60
2019/09/21 04:25:16;;;;;;;1.55;1.42;;;;;;;20.14;49.57;101126.47;;;;-61
2019/09/21 04:28:16;;;;;;;1.56;1.41;;;;;;;20.13;49.55;101119.27;;;;-59
2019/09/21 04:31:17;;;;;;;1.91;1.50;;;;;;;20.14;49.56;101119.15;;;;-60
2019/09/21 04:34:17;;;;;;;1.80;1.37;;;;;;;20.14;49.52;101118.77;;;;-60
2019/09/21 04:37:17;;;;;;;1.40;1.30;;;;;;;20.13;49.55;101115.25;;;;-60
2019/09/21 04:40:17;;;;;;;1.45;1.35;;;;;;;20.13;49.56;101114.08;;;;-62
2019/09/21 04:43:16;;;;;;;1.53;1.43;;;;;;;20.14;49.53;101115.06;;;;-60
2019/09/21 04:46:16;;;;;;;1.53;1.43;;;;;;;20.13;49.53;101111.89;;;;-60
2019/09/21 04:49:16;;;;;;;1.64;1.54;;;;;;;20.13;49.56;101113.91;;;;-60
2019/09/21 04:52:17;;;;;;;1.63;1.49;;;;;;;20.13;49.58;101114.52;;;;-62
2019/09/21 04:55:17;;;;;;;1.62;1.52;;;;;;;20.12;49.54;101107.48;;;;-59
2019/09/21 04:58:17;;;;;;;1.79;1.40;;;;;;;20.12;49.56;101105.63;;;;-60
2019/09/21 05:01:16;;;;;;;1.67;1.51;;;;;;;20.13;49.55;101108.70;;;;-60
2019/09/21 05:04:16;;;;;;;1.52;1.42;;;;;;;20.12;49.54;101105.07;;;;-60
2019/09/21 05:07:17;;;;;;;1.47;1.35;;;;;;;20.11;49.55;101097.53;;;;-60
2019/09/21 05:10:16;;;;;;;1.53;1.41;;;;;;;20.11;49.59;101101.83;;;;-60
2019/09/21 05:13:17;;;;;;;2.22;1.50;;;;;;;20.11;49.56;101103.41;;;;-61
2019/09/21 05:16:17;;;;;;;1.50;1.40;;;;;;;20.12;49.56;101107.14;;;;-60
2019/09/21 05:19:17;;;;;;;1.64;1.51;;;;;;;20.11;49.55;101105.75;;;;-60
2019/09/21 05:22:16;;;;;;;1.68;1.58;;;;;;;20.11;49.55;101104.57;;;;-61
2019/09/21 05:25:16;;;;;;;1.67;1.57;;;;;;;20.11;49.59;101106.76;;;;-60
2019/09/21 05:28:17;;;;;;;1.77;1.50;;;;;;;20.11;49.63;101106.09;;;;-60
2019/09/21 05:31:17;;;;;;;5.68;3.20;;;;;;;19.96;43.54;101104.92;;;;-55
2019/09/21 05:34:16;;;;;;;5.24;3.59;;;;;;;19.37;40.18;101103.59;;;;-55
2019/09/21 05:37:17;;;;;;;5.91;3.29;;;;;;;19.03;39.34;101104.27;;;;-58
2019/09/21 05:40:16;;;;;;;8.19;3.21;;;;;;;18.79;39.05;101106.67;;;;-58
2019/09/21 05:43:16;;;;;;;5.41;2.91;;;;;;;18.61;38.80;101107.89;;;;-58
2019/09/21 05:46:16;;;;;;;7.78;2.72;;;;;;;18.69;39.80;101106.02;;;;-59
2019/09/21 05:49:16;;;;;;;6.46;2.62;;;;;;;18.91;40.85;101108.63;;;;-58
2019/09/21 05:52:17;;;;;;;5.45;2.38;;;;;;;19.05;42.06;101107.49;;;;-58
2019/09/21 05:55:17;;;;;;;4.59;2.53;;;;;;;19.16;42.92;101109.82;;;;-58
2019/09/21 05:58:16;;;;;;;4.96;2.39;;;;;;;19.25;43.32;101109.89;;;;-58
2019/09/21 06:01:16;;;;;;;3.89;2.39;;;;;;;19.31;43.83;101108.11;;;;-58
2019/09/21 06:04:16;;;;;;;3.99;2.35;;;;;;;19.38;43.98;101106.55;;;;-58
2019/09/21 06:07:16;;;;;;;4.56;2.28;;;;;;;19.43;44.40;101101.53;;;;-58
2019/09/21 06:10:17;;;;;;;4.99;2.39;;;;;;;19.46;44.66;101090.75;;;;-58
2019/09/21 06:13:17;;;;;;;3.10;2.19;;;;;;;19.49;44.79;101091.25;;;;-59
2019/09/21 06:16:16;;;;;;;3.33;2.14;;;;;;;19.51;45.09;101091.19;;;;-58
2019/09/21 06:19:16;;;;;;;4.51;2.31;;;;;;;19.54;45.16;101087.66;;;;-58
2019/09/21 06:22:16;;;;;;;3.19;2.14;;;;;;;19.56;45.31;101088.28;;;;-58
2019/09/21 06:25:17;;;;;;;3.68;2.27;;;;;;;19.57;45.51;101088.56;;;;-58
2019/09/21 06:28:17;;;;;;;4.06;1.99;;;;;;;19.59;45.60;101090.17;;;;-58
2019/09/21 06:31:17;;;;;;;3.33;2.08;;;;;;;19.61;45.71;101092.95;;;;-58
2019/09/21 06:34:17;;;;;;;4.46;2.12;;;;;;;19.62;45.81;101095.86;;;;-58
2019/09/21 06:37:16;;;;;;;3.78;2.13;;;;;;;19.62;45.94;101090.34;;;;-59
2019/09/21 06:40:16;;;;;;;4.18;2.07;;;;;;;19.62;46.06;101092.29;;;;-58
2019/09/21 06:43:16;;;;;;;3.20;1.97;;;;;;;19.63;46.14;101093.75;;;;-59
2019/09/21 06:46:16;;;;;;;2.21;1.87;;;;;;;19.64;46.26;101095.30;;;;-59
2019/09/21 06:49:17;;;;;;;2.75;1.91;;;;;;;19.65;46.34;101096.94;;;;-58
2019/09/21 06:52:17;;;;;;;2.74;2.19;;;;;;;19.66;46.44;101097.42;;;;-59
2019/09/21 06:55:16;;;;;;;2.91;2.10;;;;;;;19.66;46.56;101093.47;;;;-58
2019/09/21 06:58:16;;;;;;;3.74;2.05;;;;;;;19.66;46.57;101089.71;;;;-59
2019/09/21 07:01:16;;;;;;;3.00;2.07;;;;;;;19.66;46.69;101089.89;;;;-58
2019/09/21 07:04:17;;;;;;;2.79;1.95;;;;;;;19.66;46.77;101092.13;;;;-58
2019/09/21 07:07:17;;;;;;;2.81;1.99;;;;;;;19.67;46.82;101091.44;;;;-59
2019/09/21 07:10:17;;;;;;;3.06;2.14;;;;;;;19.68;46.87;101096.66;;;;-58
2019/09/21 07:13:16;;;;;;;2.69;1.89;;;;;;;19.67;46.94;101091.22;;;;-59
2019/09/21 07:16:16;;;;;;;2.58;1.95;;;;;;;19.67;46.98;101085.35;;;;-59
2019/09/21 07:19:16;;;;;;;2.81;2.11;;;;;;;19.68;47.01;101088.25;;;;-59
2019/09/21 07:22:16;;;;;;;2.27;1.92;;;;;;;19.67;47.08;101090.95;;;;-58
2019/09/21 07:25:16;;;;;;;2.51;1.90;;;;;;;19.69;47.12;101095.14;;;;-58
2019/09/21 07:28:16;;;;;;;2.51;1.93;;;;;;;19.70;47.19;101092.45;;;;-59
2019/09/21 07:31:17;;;;;;;2.69;2.01;;;;;;;19.70;47.23;101089.83;;;;-59
2019/09/21 07:34:16;;;;;;;2.24;1.88;;;;;;;19.71;47.29;101086.20;;;;-59
2019/09/21 07:37:16;;;;;;;2.53;1.89;;;;;;;19.71;47.30;101079.33;;;;-59
2019/09/21 07:40:16;;;;;;;2.33;1.88;;;;;;;19.72;47.38;101076.86;;;;-59
2019/09/21 07:43:16;;;;;;;2.05;1.82;;;;;;;19.72;47.38;101080.59;;;;-59
2019/09/21 07:46:17;;;;;;;2.00;1.79;;;;;;;19.72;47.44;101080.98;;;;-59
2019/09/21 07:49:17;;;;;;;1.93;1.76;;;;;;;19.72;47.45;101083.12;;;;-58
2019/09/21 07:52:16;;;;;;;2.26;1.80;;;;;;;19.73;47.46;101084.96;;;;-58
2019/09/21 07:55:16;;;;;;;2.45;1.82;;;;;;;19.73;47.50;101083.02;;;;-58
2019/09/21 07:58:16;;;;;;;2.29;1.85;;;;;;;19.72;47.52;101082.94;;;;-59
2019/09/21 08:01:16;;;;;;;1.97;1.80;;;;;;;19.73;47.55;101075.18;;;;-58
2019/09/21 08:04:16;;;;;;;2.39;1.93;;;;;;;19.74;47.61;101071.31;;;;-59
2019/09/21 08:07:16;;;;;;;2.54;1.70;;;;;;;19.75;47.61;101072.50;;;;-59
2019/09/21 08:10:16;;;;;;;2.28;1.87;;;;;;;19.74;47.61;101077.42;;;;-59
2019/09/21 08:13:16;;;;;;;1.97;1.73;;;;;;;19.75;47.57;101073.44;;;;-58
2019/09/21 08:16:16;;;;;;;1.95;1.61;;;;;;;19.75;47.62;101072.38;;;;-59
2019/09/21 08:19:16;;;;;;;2.26;1.79;;;;;;;19.76;47.63;101064.61;;;;-59
2019/09/21 08:22:16;;;;;;;2.11;1.74;;;;;;;19.76;47.72;101061.27;;;;-59
2019/09/21 08:25:16;;;;;;;1.89;1.61;;;;;;;19.76;47.69;101054.91;;;;-59
2019/09/21 08:28:17;;;;;;;1.80;1.64;;;;;;;19.76;47.71;101053.89;;;;-59
2019/09/21 08:31:16;;;;;;;1.95;1.75;;;;;;;19.76;47.73;101050.77;;;;-59
2019/09/21 08:34:16;;;;;;;2.01;1.71;;;;;;;19.75;47.74;101042.11;;;;-59
2019/09/21 08:37:16;;;;;;;1.99;1.79;;;;;;;19.77;47.79;101048.08;;;;-59
2019/09/21 08:40:16;;;;;;;2.00;1.77;;;;;;;19.77;47.76;101040.44;;;;-59
2019/09/21 08:43:16;;;;;;;1.87;1.60;;;;;;;19.78;47.77;101042.16;;;;-59
2019/09/21 08:46:17;;;;;;;1.95;1.69;;;;;;;19.77;47.80;101039.27;;;;-58
2019/09/21 08:49:16;;;;;;;1.71;1.61;;;;;;;19.78;47.81;101035.62;;;;-48
2019/09/21 08:52:16;;;;;;;7.61;1.67;;;;;;;19.83;47.92;101034.70;;;;-46
2019/09/21 08:55:16;;;;;;;5.69;1.89;;;;;;;19.75;45.29;101028.88;;;;-44
2019/09/21 08:58:17;;;;;;;3.05;1.81;;;;;;;19.75;45.21;101029.77;;;;-50
2019/09/21 09:01:17;;;;;;;4.87;1.98;;;;;;;19.78;43.78;101028.24;;;;-47
2019/09/21 09:04:17;;;;;;;4.47;2.01;;;;;;;19.72;44.33;101024.69;;;;-50
2019/09/21 09:07:17;;;;;;;4.35;2.21;;;;;;;19.74;44.32;101029.20;;;;-48
2019/09/21 09:10:16;;;;;;;3.23;2.13;;;;;;;19.72;43.81;101029.81;;;;-60
2019/09/21 09:13:16;;;;;;;3.45;2.09;;;;;;;19.73;44.40;101029.66;;;;-54
2019/09/21 09:16:16;;;;;;;5.74;2.00;;;;;;;19.73;43.97;101026.75;;;;-56
2019/09/21 09:19:16;;;;;;;4.21;2.07;;;;;;;19.73;43.74;101025.84;;;;-60
2019/09/21 09:22:16;;;;;;;7.81;2.20;;;;;;;19.80;44.03;101023.98;;;;-58
2019/09/21 09:25:17;;;;;;;7.93;2.40;;;;;;;19.81;44.33;101020.13;;;;-60
2019/09/21 09:28:16;;;;;;;6.63;2.15;;;;;;;19.86;44.76;101023.70;;;;-59
2019/09/21 09:31:16;;;;;;;9.37;2.17;;;;;;;19.86;45.05;101019.22;;;;-60
2019/09/21 09:34:16;;;;;;;6.95;2.27;;;;;;;19.88;45.20;101016.02;;;;-60
2019/09/21 09:37:16;;;;;;;8.22;2.12;;;;;;;19.90;45.29;101013.02;;;;-60
2019/09/21 09:40:16;;;;;;;6.15;2.37;;;;;;;19.92;45.37;101014.69;;;;-59
2019/09/21 09:44:17;;;;;;;6.95;2.21;;;;;;;19.91;45.57;101013.78;;;;-59
2019/09/21 09:47:17;;;;;;;4.17;2.14;;;;;;;19.92;45.64;101006.91;;;;-60
2019/09/21 09:50:16;;;;;;;7.01;1.91;;;;;;;19.94;45.79;101003.22;;;;-48
2019/09/21 09:53:16;;;;;;;5.57;2.02;;;;;;;19.93;45.96;100993.59;;;;-53
2019/09/21 09:56:16;;;;;;;11.11;2.07;;;;;;;19.96;46.12;100989.75;;;;-50
2019/09/21 09:59:16;;;;;;;4.77;1.93;;;;;;;19.96;46.23;100984.42;;;;-49
2019/09/21 10:02:16;;;;;;;5.85;2.03;;;;;;;19.96;46.28;100985.87;;;;-50
2019/09/21 10:05:16;;;;;;;4.29;2.05;;;;;;;19.98;46.46;100984.39;;;;-51
2019/09/21 10:08:16;;;;;;;3.63;1.92;;;;;;;19.99;46.61;100981.66;;;;-49
2019/09/21 10:11:16;;;;;;;4.63;1.86;;;;;;;20.01;46.66;100979.64;;;;-48
2019/09/21 10:14:16;;;;;;;3.76;1.94;;;;;;;20.00;46.73;100984.56;;;;-51
2019/09/21 10:17:16;;;;;;;3.36;1.80;;;;;;;20.03;46.90;100979.41;;;;-48
2019/09/21 10:20:16;;;;;;;3.35;1.90;;;;;;;20.05;46.90;100978.67;;;;-49
2019/09/21 10:23:16;;;;;;;4.49;1.93;;;;;;;20.04;47.20;100973.46;;;;-54
2019/09/21 10:26:17;;;;;;;3.94;1.89;;;;;;;20.10;47.23;100964.95;;;;-53
2019/09/21 10:29:16;;;;;;;4.17;1.80;;;;;;;20.12;47.27;100963.36;;;;-56
2019/09/21 10:32:16;;;;;;;3.48;1.86;;;;;;;20.12;47.34;100956.48;;;;-51
2019/09/21 10:35:16;;;;;;;5.99;1.93;;;;;;;20.13;47.25;100948.89;;;;-54
2019/09/21 10:38:16;;;;;;;6.15;1.94;;;;;;;20.15;47.34;100943.62;;;;-51
2019/09/21 10:41:16;;;;;;;6.53;2.01;;;;;;;20.15;47.39;100938.02;;;;-51
2019/09/21 10:45:16;;;;;;;5.35;2.06;;;;;;;20.15;47.37;100930.05;;;;-51
2019/09/21 10:48:16;;;;;;;4.73;2.08;;;;;;;20.17;47.52;100929.36;;;;-49
2019/09/21 10:51:16;;;;;;;13.44;2.29;;;;;;;20.19;47.55;100928.96;;;;-56
2019/09/21 10:54:16;;;;;;;5.03;1.93;;;;;;;20.18;47.60;100925.43;;;;-50
2019/09/21 10:57:16;;;;;;;5.14;2.05;;;;;;;20.21;47.70;100916.69;;;;-51
2019/09/21 11:00:16;;;;;;;4.87;2.01;;;;;;;20.22;47.64;100914.85;;;;-50
2019/09/21 11:03:16;;;;;;;4.97;1.89;;;;;;;20.23;47.68;100906.69;;;;-52
2019/09/21 11:06:16;;;;;;;6.35;1.91;;;;;;;20.23;47.83;100891.86;;;;-51
2019/09/21 11:09:16;;;;;;;5.47;1.79;;;;;;;20.25;47.81;100884.84;;;;-48
2019/09/21 11:12:16;;;;;;;3.83;1.93;;;;;;;20.24;47.80;100879.10;;;;-51
2019/09/21 11:15:17;;;;;;;4.96;1.97;;;;;;;20.25;47.85;100877.77;;;;-54
2019/09/21 11:18:16;;;;;;;5.77;1.75;;;;;;;20.26;47.88;100871.61;;;;-56
2019/09/21 11:21:16;;;;;;;4.33;2.02;;;;;;;20.27;47.87;100861.66;;;;-54
2019/09/21 11:24:16;;;;;;;5.27;1.81;;;;;;;20.28;47.95;100859.29;;;;-52
2019/09/21 11:27:16;;;;;;;6.28;1.90;;;;;;;20.28;47.90;100852.81;;;;-51
2019/09/21 11:30:16;;;;;;;6.25;2.09;;;;;;;20.29;47.97;100855.88;;;;-52
2019/09/21 11:33:16;;;;;;;3.77;1.89;;;;;;;20.30;48.00;100846.53;;;;-50
2019/09/21 11:36:16;;;;;;;3.57;1.73;;;;;;;20.30;48.01;100851.71;;;;-53
2019/09/21 11:39:16;;;;;;;4.41;1.83;;;;;;;20.31;48.03;100843.61;;;;-52
2019/09/21 11:42:17;;;;;;;3.50;1.80;;;;;;;20.31;48.09;100845.17;;;;-50
2019/09/21 11:47:16;;;;;;;4.00;1.77;;;;;;;20.28;48.07;100839.84;;;;-50
2019/09/21 11:50:16;;;;;;;6.73;1.98;;;;;;;20.27;48.05;100833.64;;;;-51
2019/09/21 11:53:16;;;;;;;3.53;1.87;;;;;;;20.27;48.05;100834.31;;;;-50
2019/09/21 11:56:16;;;;;;;3.29;1.73;;;;;;;20.26;48.01;100824.14;;;;-50
2019/09/21 11:59:16;;;;;;;2.81;1.67;;;;;;;20.26;48.05;100818.50;;;;-57
2019/09/21 12:02:17;;;;;;;3.45;1.75;;;;;;;20.26;47.97;100819.28;;;;-56
2019/09/21 12:05:16;;;;;;;2.99;1.65;;;;;;;20.25;47.97;100809.87;;;;-56
2019/09/21 12:08:16;;;;;;;3.01;1.87;;;;;;;20.25;48.02;100799.98;;;;-56
2019/09/21 12:11:16;;;;;;;2.45;1.77;;;;;;;20.24;48.05;100793.80;;;;-56
2019/09/21 12:14:16;;;;;;;4.73;1.77;;;;;;;20.24;48.06;100793.80;;;;-56
2019/09/21 12:17:16;;;;;;;3.83;1.73;;;;;;;20.25;48.01;100787.06;;;;-57
2019/09/21 12:20:16;;;;;;;2.76;1.71;;;;;;;20.24;48.02;100778.64;;;;-57
2019/09/21 12:23:16;;;;;;;3.47;1.59;;;;;;;20.24;48.02;100777.80;;;;-56
2019/09/21 12:26:16;;;;;;;2.05;1.59;;;;;;;20.24;48.02;100767.19;;;;-56
2019/09/21 12:29:16;;;;;;;3.90;1.75;;;;;;;20.24;47.98;100763.11;;;;-57
2019/09/21 12:32:16;;;;;;;2.77;1.71;;;;;;;20.24;48.00;100757.12;;;;-56
2019/09/21 12:35:16;;;;;;;3.44;1.57;;;;;;;20.23;47.97;100747.52;;;;-56
2019/09/21 12:38:16;;;;;;;2.43;1.61;;;;;;;20.23;47.87;100741.15;;;;-56
2019/09/21 12:41:16;;;;;;;3.04;1.77;;;;;;;20.23;47.98;100738.73;;;;-56
2019/09/21 12:44:16;;;;;;;1.87;1.47;;;;;;;20.24;47.96;100729.86;;;;-56
2019/09/21 12:47:16;;;;;;;2.65;1.68;;;;;;;20.24;48.00;100728.63;;;;-56
2019/09/21 12:50:16;;;;;;;2.81;1.63;;;;;;;20.24;47.99;100719.46;;;;-56
2019/09/21 12:53:16;;;;;;;3.69;1.60;;;;;;;20.27;47.93;100720.81;;;;-59
2019/09/21 12:56:16;;;;;;;3.55;1.79;;;;;;;20.28;47.92;100713.44;;;;-58
2019/09/21 12:59:16;;;;;;;2.57;1.50;;;;;;;20.29;47.89;100712.11;;;;-58
2019/09/21 13:02:16;;;;;;;3.70;1.63;;;;;;;20.30;47.90;100708.27;;;;-60
2019/09/21 13:05:16;;;;;;;4.36;1.61;;;;;;;20.30;48.01;100705.85;;;;-59
2019/09/21 13:08:16;;;;;;;4.46;1.73;;;;;;;20.30;47.95;100704.06;;;;-59
2019/09/21 13:11:16;;;;;;;4.29;1.78;;;;;;;20.29;47.98;100700.20;;;;-59
2019/09/21 13:14:16;;;;;;;2.73;1.60;;;;;;;20.30;48.00;100693.40;;;;-59
2019/09/21 13:17:16;;;;;;;2.35;1.70;;;;;;;20.30;48.00;100690.59;;;;-52
2019/09/21 13:20:16;;;;;;;3.66;1.60;;;;;;;20.29;47.95;100681.45;;;;-51
2019/09/21 13:23:16;;;;;;;2.54;1.76;;;;;;;20.29;48.03;100674.78;;;;-53
2019/09/21 13:26:16;;;;;;;2.84;1.84;;;;;;;20.28;47.98;100659.30;;;;-51
2019/09/21 13:29:16;;;;;;;1.69;1.46;;;;;;;20.29;47.96;100652.87;;;;-55
2019/09/21 13:32:16;;;;;;;3.13;1.75;;;;;;;20.28;47.97;100639.07;;;;-56
2019/09/21 13:35:16;;;;;;;2.14;1.57;;;;;;;20.28;48.01;100635.05;;;;-60
2019/09/21 13:38:16;;;;;;;2.32;1.68;;;;;;;20.28;47.96;100627.10;;;;-60
2019/09/21 13:41:16;;;;;;;2.45;1.49;;;;;;;20.29;48.01;100629.83;;;;-51
2019/09/21 13:44:16;;;;;;;2.86;1.55;;;;;;;20.30;47.95;100622.05;;;;-51
2019/09/21 13:47:16;;;;;;;1.85;1.46;;;;;;;20.30;48.03;100624.63;;;;-51
2019/09/21 13:50:16;;;;;;;3.17;1.58;;;;;;;20.30;48.01;100623.29;;;;-51
2019/09/21 13:53:16;;;;;;;1.71;1.53;;;;;;;20.29;48.03;100613.02;;;;-51
2019/09/21 13:56:16;;;;;;;3.55;1.57;;;;;;;20.30;48.05;100612.99;;;;-51
2019/09/21 13:59:16;;;;;;;5.23;1.67;;;;;;;20.30;48.09;100605.62;;;;-48
2019/09/21 14:02:16;;;;;;;2.61;1.48;;;;;;;20.31;48.07;100603.48;;;;-48
2019/09/21 14:05:16;;;;;;;8.65;1.75;;;;;;;20.31;48.16;100599.13;;;;-46
2019/09/21 14:08:16;;;;;;;2.55;1.43;;;;;;;20.30;48.24;100594.25;;;;-54
2019/09/21 14:11:16;;;;;;;2.94;1.66;;;;;;;20.32;48.27;100592.55;;;;-48
2019/09/21 14:14:16;;;;;;;2.33;1.57;;;;;;;20.33;48.24;100593.67;;;;-57
2019/09/21 14:17:16;;;;;;;2.69;1.51;;;;;;;20.38;48.24;100587.61;;;;-58
2019/09/21 14:20:16;;;;;;;3.95;1.57;;;;;;;20.36;48.27;100580.89;;;;-56
2019/09/21 14:23:16;;;;;;;2.70;1.41;;;;;;;20.38;48.27;100571.02;;;;-50
2019/09/21 14:26:16;;;;;;;3.17;1.63;;;;;;;20.39;48.29;100573.64;;;;-51
2019/09/21 14:29:16;;;;;;;2.19;1.64;;;;;;;20.41;48.37;100572.37;;;;-51
2019/09/21 14:32:16;;;;;;;2.31;1.53;;;;;;;20.41;48.38;100573.21;;;;-54
2019/09/21 14:35:16;;;;;;;3.37;1.65;;;;;;;20.43;48.41;100565.75;;;;-55
2019/09/21 14:38:16;;;;;;;2.16;1.62;;;;;;;20.42;48.41;100557.09;;;;-55
2019/09/21 14:41:16;;;;;;;1.94;1.59;;;;;;;20.45;48.44;100553.59;;;;-55
2019/09/21 14:44:16;;;;;;;2.53;1.66;;;;;;;20.45;48.51;100545.77;;;;-48
2019/09/21 14:47:16;;;;;;;5.18;1.61;;;;;;;20.44;48.59;100539.73;;;;-49
2019/09/21 14:50:16;;;;;;;1.79;1.43;;;;;;;20.46;48.70;100532.49;;;;-47
2019/09/21 14:53:16;;;;;;;2.41;1.50;;;;;;;20.46;48.69;100535.17;;;;-48
2019/09/21 14:56:16;;;;;;;1.75;1.47;;;;;;;20.47;48.61;100536.56;;;;-48
2019/09/21 14:59:16;;;;;;;1.84;1.51;;;;;;;20.48;48.64;100541.09;;;;-46
2019/09/21 15:02:16;;;;;;;3.03;1.51;;;;;;;20.48;48.65;100536.84;;;;-52
2019/09/21 15:05:16;;;;;;;2.22;1.58;;;;;;;20.49;48.68;100534.20;;;;-53
2019/09/21 15:08:16;;;;;;;4.08;1.66;;;;;;;20.47;48.69;100532.30;;;;-50
2019/09/21 15:11:16;;;;;;;2.17;1.67;;;;;;;20.49;48.70;100527.92;;;;-50
2019/09/21 15:14:16;;;;;;;2.99;1.63;;;;;;;20.49;48.71;100521.05;;;;-49
2019/09/21 15:17:16;;;;;;;2.91;1.51;;;;;;;20.49;48.74;100514.33;;;;-51
2019/09/21 15:20:16;;;;;;;2.45;1.58;;;;;;;20.50;48.75;100507.94;;;;-48
2019/09/21 15:23:16;;;;;;;3.67;1.67;;;;;;;20.51;48.77;100505.80;;;;-50
2019/09/21 15:26:16;;;;;;;2.07;1.40;;;;;;;20.52;48.73;100504.33;;;;-51
2019/09/21 15:29:16;;;;;;;3.58;1.39;;;;;;;20.53;48.71;100505.77;;;;-53
2019/09/21 15:32:16;;;;;;;1.53;1.41;;;;;;;20.53;48.73;100495.70;;;;-51
2019/09/21 15:35:16;;;;;;;2.46;1.43;;;;;;;20.54;48.81;100489.81;;;;-59
2019/09/21 15:38:16;;;;;;;1.51;1.41;;;;;;;20.54;48.85;100483.00;;;;-57
2019/09/21 15:41:16;;;;;;;2.81;1.53;;;;;;;20.53;48.79;100477.59;;;;-49
2019/09/21 15:44:16;;;;;;;3.80;1.39;;;;;;;20.54;48.79;100478.06;;;;-48
2019/09/21 15:47:16;;;;;;;2.34;1.53;;;;;;;20.54;48.87;100479.70;;;;-47
2019/09/21 15:50:16;;;;;;;3.12;1.57;;;;;;;20.55;48.97;100478.30;;;;-48
2019/09/21 15:53:16;;;;;;;1.93;1.29;;;;;;;20.55;48.91;100478.41;;;;-50
2019/09/21 15:56:16;;;;;;;1.62;1.52;;;;;;;20.56;48.79;100484.15;;;;-48
2019/09/21 15:59:16;;;;;;;2.35;1.41;;;;;;;20.56;48.96;100482.64;;;;-48
2019/09/21 16:02:16;;;;;;;3.56;1.57;;;;;;;20.57;48.89;100475.80;;;;-47
2019/09/21 16:05:16;;;;;;;2.91;1.40;;;;;;;20.58;48.88;100467.34;;;;-48
2019/09/21 16:08:16;;;;;;;3.41;1.62;;;;;;;20.59;48.92;100464.37;;;;-50
2019/09/21 16:11:16;;;;;;;1.71;1.40;;;;;;;20.59;48.98;100467.49;;;;-49
2019/09/21 16:14:16;;;;;;;2.31;1.49;;;;;;;20.59;48.99;100463.13;;;;-48
2019/09/21 16:17:16;;;;;;;2.03;1.50;;;;;;;20.60;48.97;100462.39;;;;-48
2019/09/21 16:20:16;;;;;;;3.01;1.39;;;;;;;20.61;48.96;100459.35;;;;-49
2019/09/21 16:23:16;;;;;;;1.87;1.38;;;;;;;20.60;49.02;100457.80;;;;-49
2019/09/21 16:26:16;;;;;;;1.59;1.40;;;;;;;20.60;49.00;100450.42;;;;-49
2019/09/21 16:30:16;;;;;;;1.99;1.31;;;;;;;20.62;48.99;100449.22;;;;-50
2019/09/21 16:33:16;;;;;;;1.71;1.51;;;;;;;20.62;49.07;100450.27;;;;-52
2019/09/21 16:36:16;;;;;;;1.87;1.39;;;;;;;20.63;49.07;100448.59;;;;-50
2019/09/21 16:39:16;;;;;;;2.28;1.51;;;;;;;20.63;49.03;100443.89;;;;-48
2019/09/21 16:42:16;;;;;;;1.71;1.40;;;;;;;20.64;49.04;100437.66;;;;-51
2019/09/21 16:45:16;;;;;;;1.68;1.37;;;;;;;20.64;49.06;100436.05;;;;-50
2019/09/21 16:48:16;;;;;;;2.30;1.40;;;;;;;20.66;48.98;100435.61;;;;-50
2019/09/21 16:51:16;;;;;;;2.93;1.64;;;;;;;20.65;49.14;100434.00;;;;-57
2019/09/21 16:54:16;;;;;;;1.92;1.32;;;;;;;20.63;49.02;100429.90;;;;-57
2019/09/21 16:57:16;;;;;;;3.13;1.54;;;;;;;20.65;48.95;100425.51;;;;-60
2019/09/21 17:00:16;;;;;;;1.73;1.41;;;;;;;20.65;48.94;100427.29;;;;-57
2019/09/21 17:03:16;;;;;;;3.81;1.31;;;;;;;20.65;48.93;100428.47;;;;-60